Decoded Metar for EICK (CORK in IRELAND) (IATA:ORK) | Meteo·Mobile Aviation Weather
aviador You're here:

EICK Decoded Metar

CORK in IRELAND
Report Time2018-11-21 07:00:00
UTC Time2018-11-21 07:31:32
Flight Rules vfr VFR
Wind340° at 09 kt
W.Decomp.*RWY 35: 9.0 kt HW 0.8 kt LCW
RWY 07: 0.8 kt HW 9 kt LCW
W.Rank340° ranks 17
Current wind is below 340° avg. (10.4)
Visibility9999 m
Phenomena:N/A
Clouds:Few 018 Hf
Scattered 120 Hf
Expected CloudBase > 800 ft AGL from Temp-Dew spread
CeilingNone
Temp02°C (ISA -12)
Dew Point00°C (87% RH)
AAT-3.2°C
QNH1005 hPa
Density Alt-597 ft
Elevation502 ft
Report Wrong Elevation
Raw Report
METAR EICK 210700Z 34009KT 9999 FEW018 SCT120 02/00 Q1005 NOSIG=

Extra information for EICK:More info

Metar Taf Metar & Taf Last 4 Metars F.Rules Stats Wind Profile Meteogram Temp Stats Airport Information Weather charts Add Link Nearby VenuesMetar ALERT Operation Metar Decoded Social comments